createdAt,value
2023-04-15T00:01:59.964Z,9.38
2023-04-15T00:04:31.735Z,9.41
2023-04-15T00:07:02.987Z,9.43
2023-04-15T00:09:33.385Z,9.46
2023-04-15T00:12:03.683Z,9.47
2023-04-15T00:14:34.818Z,9.48
2023-04-15T00:17:05.606Z,9.49
2023-04-15T00:19:35.928Z,9.49
2023-04-15T00:22:06.324Z,9.51
2023-04-15T00:24:36.912Z,9.53
2023-04-15T00:27:07.252Z,9.56
2023-04-15T00:29:37.505Z,9.57
2023-04-15T00:32:08.291Z,9.60
2023-04-15T00:34:38.665Z,9.61
2023-04-15T00:37:10.954Z,9.62
2023-04-15T00:39:41.476Z,9.63
2023-04-15T00:42:12.399Z,9.65
2023-04-15T00:44:43.661Z,9.66
2023-04-15T00:47:14.611Z,9.68
2023-04-15T00:49:44.961Z,9.71
2023-04-15T00:52:15.471Z,9.72
2023-04-15T00:54:46.163Z,9.73
2023-04-15T00:57:16.803Z,9.73
2023-04-15T00:59:47.178Z,9.73
2023-04-15T01:02:18.813Z,9.73
2023-04-15T01:04:49.385Z,9.73
2023-04-15T01:07:20.668Z,9.73
2023-04-15T01:09:51.079Z,9.73
2023-04-15T01:12:21.564Z,9.73
2023-04-15T01:14:52.061Z,9.73
2023-04-15T01:17:22.480Z,9.73
2023-04-15T01:19:53.588Z,9.73
2023-04-15T01:22:24.482Z,9.75
2023-04-15T01:25:04.719Z,9.75
2023-04-15T01:27:36.380Z,9.75
2023-04-15T01:30:08.488Z,9.75
2023-04-15T01:32:39.458Z,9.75
2023-04-15T01:35:10.645Z,9.76
2023-04-15T01:37:41.080Z,9.77
2023-04-15T01:40:12.409Z,9.77
2023-04-15T01:42:42.734Z,9.79
2023-04-15T01:45:14.366Z,9.78
2023-04-15T01:47:45.680Z,9.79
2023-04-15T01:50:16.537Z,9.79
2023-04-15T01:52:47.022Z,9.80
2023-04-15T01:55:17.314Z,9.81
2023-04-15T01:57:49.250Z,9.81
2023-04-15T02:00:19.741Z,9.81
2023-04-15T02:02:50.464Z,9.81
2023-04-15T02:05:22.619Z,9.82
2023-04-15T02:07:53.771Z,9.83
2023-04-15T02:10:24.169Z,9.85
2023-04-15T02:12:55.339Z,9.85
2023-04-15T02:15:25.969Z,9.88
2023-04-15T02:17:56.313Z,9.89
2023-04-15T02:20:26.714Z,9.89
2023-04-15T02:22:57.038Z,9.88
2023-04-15T02:25:27.384Z,9.85
2023-04-15T02:27:59.970Z,9.81
2023-04-15T02:30:30.326Z,9.77
2023-04-15T02:33:00.841Z,9.72
2023-04-15T02:35:31.227Z,9.68
2023-04-15T02:38:03.177Z,9.64
2023-04-15T02:40:33.461Z,9.60
2023-04-15T02:43:05.461Z,9.56
2023-04-15T02:45:36.002Z,9.53
2023-04-15T02:48:08.136Z,9.49
2023-04-15T02:50:40.924Z,9.45
2023-04-15T02:53:13.449Z,9.42
2023-04-15T02:55:43.843Z,9.40
2023-04-15T02:58:14.460Z,9.38
2023-04-15T03:00:44.775Z,9.36
2023-04-15T03:03:15.615Z,9.32
2023-04-15T03:05:46.729Z,9.30
2023-04-15T03:08:17.331Z,9.27
2023-04-15T03:10:47.662Z,9.27
2023-04-15T03:13:17.958Z,9.26
2023-04-15T03:15:49.677Z,9.24
2023-04-15T03:18:19.978Z,9.25
2023-04-15T03:20:50.733Z,9.25
2023-04-15T03:23:21.496Z,9.25
2023-04-15T03:25:52.285Z,9.24
2023-04-15T03:28:22.688Z,9.21
2023-04-15T03:30:53.097Z,9.17
2023-04-15T03:33:23.439Z,9.12
2023-04-15T03:35:55.284Z,9.07
2023-04-15T03:38:25.910Z,9.03
2023-04-15T03:40:56.302Z,8.99
2023-04-15T03:43:26.616Z,8.94
2023-04-15T03:45:56.938Z,8.93
2023-04-15T03:48:27.452Z,8.90
2023-04-15T03:50:57.795Z,8.86
2023-04-15T03:53:28.151Z,8.81
2023-04-15T03:55:58.477Z,8.76
2023-04-15T03:58:28.908Z,8.69
2023-04-15T04:00:59.334Z,8.64
2023-04-15T04:03:29.785Z,8.58
2023-04-15T04:06:00.379Z,8.52
2023-04-15T04:08:30.868Z,8.46
2023-04-15T04:11:01.538Z,8.41
2023-04-15T04:13:31.863Z,8.37
2023-04-15T04:16:02.305Z,8.33
2023-04-15T04:18:32.778Z,8.27
2023-04-15T04:21:03.432Z,8.21
2023-04-15T04:23:33.969Z,8.16
2023-04-15T04:26:04.301Z,8.12
2023-04-15T04:28:35.286Z,8.09
2023-04-15T04:31:05.826Z,8.05
2023-04-15T04:33:36.174Z,8.00
2023-04-15T04:36:08.059Z,7.96
2023-04-15T04:38:38.340Z,7.92
2023-04-15T04:41:10.737Z,7.90
2023-04-15T04:43:41.075Z,7.88
2023-04-15T04:46:12.123Z,7.84
2023-04-15T04:48:42.884Z,7.84
2023-04-15T04:51:13.955Z,7.83
2023-04-15T04:53:44.397Z,7.83
2023-04-15T04:56:14.696Z,7.83
2023-04-15T04:58:44.986Z,7.85
2023-04-15T05:01:15.546Z,7.87
2023-04-15T05:03:46.000Z,7.85
2023-04-15T05:06:16.363Z,7.86
2023-04-15T05:08:47.547Z,7.86
2023-04-15T05:11:17.876Z,7.86
2023-04-15T05:13:48.223Z,7.83
2023-04-15T05:16:19.961Z,7.82
2023-04-15T05:18:50.269Z,7.81
2023-04-15T05:21:21.139Z,7.79
2023-04-15T05:23:51.524Z,7.77
2023-04-15T05:26:22.475Z,7.75
2023-04-15T05:28:52.827Z,7.72
2023-04-15T05:31:23.256Z,7.71
2023-04-15T05:33:53.683Z,7.68
2023-04-15T05:36:24.030Z,7.70
2023-04-15T05:38:54.339Z,7.73
2023-04-15T05:41:24.741Z,7.77
2023-04-15T05:43:55.123Z,7.78
2023-04-15T05:46:25.495Z,7.80
2023-04-15T05:48:58.044Z,7.83
2023-04-15T05:51:28.650Z,7.87
2023-04-15T05:53:58.937Z,7.88
2023-04-15T05:56:29.285Z,7.91
2023-04-15T05:58:59.730Z,7.94
2023-04-15T06:01:30.431Z,7.97
2023-04-15T06:04:00.857Z,8.04
2023-04-15T06:06:32.517Z,8.10
2023-04-15T06:09:03.043Z,8.14
2023-04-15T06:11:33.775Z,8.15
2023-04-15T06:14:04.037Z,8.17
2023-04-15T06:16:34.416Z,8.19
2023-04-15T06:19:04.786Z,8.20
2023-04-15T06:21:35.080Z,8.15
2023-04-15T06:24:05.704Z,8.17
2023-04-15T06:26:36.154Z,8.18
2023-04-15T06:29:06.736Z,8.21
2023-04-15T06:31:37.399Z,8.24
2023-04-15T06:34:07.767Z,8.27
2023-04-15T06:36:38.062Z,8.29
2023-04-15T06:39:08.767Z,8.33
2023-04-15T06:41:39.079Z,8.36
2023-04-15T06:44:09.865Z,8.41
2023-04-15T06:46:40.649Z,8.46
2023-04-15T06:49:11.513Z,8.48
2023-04-15T06:51:41.962Z,8.46
2023-04-15T06:54:12.675Z,8.48
2023-04-15T06:56:43.038Z,8.55
2023-04-15T06:59:14.321Z,8.64
2023-04-15T07:01:44.767Z,8.68
2023-04-15T07:04:15.436Z,8.73
2023-04-15T07:06:46.117Z,8.78
2023-04-15T07:09:16.558Z,8.83
2023-04-15T07:11:46.866Z,8.85
2023-04-15T07:14:17.177Z,8.88
2023-04-15T07:16:47.506Z,8.96
2023-04-15T07:19:17.818Z,9.02
2023-04-15T07:21:48.217Z,9.10
2023-04-15T07:24:20.668Z,9.17
2023-04-15T07:26:51.145Z,9.23
2023-04-15T07:29:21.581Z,9.30
2023-04-15T07:31:51.909Z,9.29
2023-04-15T07:34:22.337Z,9.28
2023-04-15T07:36:52.740Z,9.28
2023-04-15T07:39:23.433Z,9.32
2023-04-15T07:41:53.784Z,9.44
2023-04-15T07:44:24.190Z,9.56
2023-04-15T07:46:54.666Z,9.63
2023-04-15T07:49:25.156Z,9.68
2023-04-15T07:51:57.668Z,9.66
2023-04-15T07:54:28.483Z,9.66
2023-04-15T07:56:59.008Z,9.75
2023-04-15T07:59:30.214Z,9.87
2023-04-15T08:02:00.681Z,10.00
2023-04-15T08:04:31.388Z,10.10
2023-04-15T08:07:02.093Z,10.19
2023-04-15T08:09:32.458Z,10.25
2023-04-15T08:12:02.870Z,10.27
2023-04-15T08:14:33.249Z,10.33
2023-04-15T08:17:04.206Z,10.41
2023-04-15T08:19:34.634Z,10.49
2023-04-15T08:22:05.207Z,10.53
2023-04-15T08:24:41.309Z,10.56
2023-04-15T08:27:11.656Z,10.68
2023-04-15T08:29:42.063Z,10.88
2023-04-15T08:32:12.455Z,11.12
2023-04-15T08:34:42.769Z,11.28
2023-04-15T08:37:13.549Z,11.40
2023-04-15T08:39:45.395Z,11.45
2023-04-15T08:42:24.437Z,11.51
2023-04-15T08:44:56.305Z,11.59
2023-04-15T08:47:30.848Z,11.55
2023-04-15T08:50:04.402Z,11.65
2023-04-15T08:52:34.704Z,11.74
2023-04-15T08:55:06.218Z,11.76
2023-04-15T08:57:36.823Z,11.79
2023-04-15T09:00:09.423Z,11.75
2023-04-15T09:02:40.342Z,11.82
2023-04-15T09:05:12.945Z,11.97
2023-04-15T09:07:43.260Z,12.12
2023-04-15T09:10:14.433Z,12.09
2023-04-15T09:12:46.749Z,12.01
2023-04-15T09:15:18.318Z,11.96
2023-04-15T09:17:49.093Z,11.89
2023-04-15T09:20:19.864Z,11.85
2023-04-15T09:22:51.972Z,11.87
2023-04-15T09:25:34.867Z,11.93
2023-04-15T09:28:05.742Z,12.03
2023-04-15T09:30:37.024Z,12.08
2023-04-15T09:33:09.044Z,12.04
2023-04-15T09:35:39.659Z,11.89
2023-04-15T09:38:13.115Z,11.78
2023-04-15T09:40:44.473Z,11.78
2023-04-15T09:43:16.879Z,11.79
2023-04-15T09:45:53.979Z,11.76
2023-04-15T09:48:29.185Z,11.74
2023-04-15T09:51:02.785Z,11.71
2023-04-15T09:53:38.345Z,11.70
2023-04-15T09:56:10.995Z,11.67
2023-04-15T09:58:42.792Z,11.67
2023-04-15T10:01:13.405Z,11.67
2023-04-15T10:03:50.332Z,11.66
2023-04-15T10:06:21.247Z,11.72
2023-04-15T10:08:52.087Z,11.78
2023-04-15T10:11:24.135Z,11.80
2023-04-15T10:13:55.642Z,11.89
2023-04-15T10:16:29.424Z,12.13
2023-04-15T10:19:09.622Z,12.44
2023-04-15T10:21:40.539Z,12.63
2023-04-15T10:24:11.708Z,12.72
2023-04-15T10:26:42.491Z,12.84
2023-04-15T10:29:13.384Z,12.86
2023-04-15T10:31:44.876Z,12.84
2023-04-15T10:34:16.701Z,12.91
2023-04-15T10:36:47.570Z,13.00
2023-04-15T10:39:41.591Z,13.02
2023-04-15T10:42:15.472Z,13.01
2023-04-15T10:44:49.619Z,13.12
2023-04-15T10:47:22.494Z,13.21
2023-04-15T10:49:58.629Z,13.10
2023-04-15T10:52:30.097Z,12.97
2023-04-15T10:55:16.661Z,12.90
2023-04-15T10:57:52.931Z,12.97
2023-04-15T11:00:26.364Z,13.02
2023-04-15T11:03:01.271Z,13.05
2023-04-15T11:05:52.141Z,13.12
2023-04-15T11:08:54.303Z,13.13
2023-04-15T11:11:24.847Z,13.30
2023-04-15T11:13:57.938Z,13.55
2023-04-15T11:16:29.064Z,13.75
2023-04-15T11:18:59.479Z,13.85
2023-04-15T11:21:30.689Z,14.00
2023-04-15T11:24:02.291Z,14.23
2023-04-15T11:26:33.698Z,14.42
2023-04-15T11:29:05.658Z,14.48
2023-04-15T11:31:36.198Z,14.56
2023-04-15T11:34:07.176Z,14.74
2023-04-15T11:36:37.892Z,14.95
2023-04-15T11:39:09.905Z,15.13
2023-04-15T11:41:43.316Z,15.24
2023-04-15T11:44:20.149Z,15.29
2023-04-15T11:46:49.028Z,15.30
2023-04-15T11:49:31.376Z,15.33
2023-04-15T11:52:01.789Z,15.52
2023-04-15T11:54:32.298Z,15.77
2023-04-15T11:57:03.251Z,15.89
2023-04-15T11:59:46.357Z,15.99
2023-04-15T12:02:17.411Z,16.12
2023-04-15T12:04:48.275Z,16.19
2023-04-15T12:07:18.654Z,16.29
2023-04-15T12:09:57.873Z,16.48
2023-04-15T12:12:31.485Z,16.66
2023-04-15T12:15:01.846Z,16.66
2023-04-15T12:17:32.404Z,16.72
2023-04-15T12:20:28.045Z,16.84
2023-04-15T12:23:08.274Z,17.39
2023-04-15T12:25:38.936Z,19.20
2023-04-15T12:28:15.335Z,21.38
2023-04-15T12:30:53.635Z,22.47
2023-04-15T12:33:23.991Z,21.92
2023-04-15T12:35:54.317Z,21.20
2023-04-15T12:38:24.890Z,20.46
2023-04-15T12:40:55.294Z,19.85
2023-04-15T12:43:26.411Z,19.38
2023-04-15T12:45:56.890Z,19.95
2023-04-15T12:48:27.577Z,20.24
2023-04-15T12:50:57.880Z,21.66
2023-04-15T12:53:28.781Z,23.02
2023-04-15T12:55:59.131Z,23.73
2023-04-15T12:58:29.472Z,24.59
2023-04-15T13:00:59.857Z,25.40
2023-04-15T13:03:30.416Z,24.83
2023-04-15T13:06:02.285Z,24.78
2023-04-15T13:08:32.628Z,25.56
2023-04-15T13:11:03.084Z,25.51
2023-04-15T13:13:33.869Z,25.22
2023-04-15T13:16:04.267Z,24.66
2023-04-15T13:18:34.951Z,25.25
2023-04-15T13:21:07.531Z,26.22
2023-04-15T13:23:37.909Z,26.49
2023-04-15T13:26:08.366Z,27.50
2023-04-15T13:28:39.049Z,30.55
2023-04-15T13:31:09.446Z,33.38
2023-04-15T13:33:39.869Z,35.64
2023-04-15T13:36:10.830Z,37.57
2023-04-15T13:38:41.505Z,39.14
2023-04-15T13:41:11.926Z,40.25
2023-04-15T13:43:42.321Z,40.99
2023-04-15T13:46:12.942Z,41.86
2023-04-15T13:48:43.441Z,42.86
2023-04-15T13:51:13.792Z,44.15
2023-04-15T13:53:44.156Z,44.73
2023-04-15T13:56:14.490Z,45.06
2023-04-15T13:58:44.807Z,45.75
2023-04-15T14:01:15.369Z,46.32
2023-04-15T14:03:46.087Z,47.00
2023-04-15T14:06:16.600Z,47.51
2023-04-15T14:08:47.575Z,47.87
2023-04-15T14:11:17.892Z,48.03
2023-04-15T14:13:48.224Z,48.00
2023-04-15T14:16:18.553Z,47.71
2023-04-15T14:18:48.981Z,45.99
2023-04-15T14:21:19.313Z,43.59
2023-04-15T14:23:49.623Z,41.14
2023-04-15T14:26:20.319Z,39.24
2023-04-15T14:28:50.929Z,37.73
2023-04-15T14:31:21.500Z,36.45
2023-04-15T14:33:53.094Z,35.40
2023-04-15T14:36:23.581Z,34.37
2023-04-15T14:38:53.923Z,33.67
2023-04-15T14:41:24.342Z,33.11
2023-04-15T14:43:54.654Z,32.45
2023-04-15T14:46:25.940Z,31.65
2023-04-15T14:48:59.030Z,30.56
2023-04-15T14:51:29.393Z,29.46
2023-04-15T14:53:59.900Z,28.62
2023-04-15T14:56:30.240Z,28.03
2023-04-15T14:59:01.062Z,27.58
2023-04-15T15:01:31.579Z,27.41
2023-04-15T15:04:02.267Z,28.34
2023-04-15T15:06:32.860Z,30.35
2023-04-15T15:09:03.852Z,32.65
2023-04-15T15:11:34.461Z,34.58
2023-04-15T15:14:04.715Z,36.26
2023-04-15T15:16:35.308Z,37.57
2023-04-15T15:19:06.439Z,38.36
2023-04-15T15:21:37.465Z,37.18
2023-04-15T15:24:08.517Z,34.36
2023-04-15T15:26:40.206Z,32.14
2023-04-15T15:29:10.644Z,30.46
2023-04-15T15:31:40.916Z,28.84
2023-04-15T15:34:11.790Z,27.55
2023-04-15T15:36:42.366Z,25.71
2023-04-15T15:39:12.922Z,24.19
2023-04-15T15:41:43.247Z,22.77
2023-04-15T15:44:13.700Z,21.79
2023-04-15T15:46:44.296Z,20.98
2023-04-15T15:49:15.693Z,20.39
2023-04-15T15:51:46.704Z,19.94
2023-04-15T15:54:17.118Z,19.42
2023-04-15T15:56:47.467Z,19.08
2023-04-15T15:59:17.810Z,18.78
2023-04-15T16:01:50.504Z,18.53
2023-04-15T16:04:21.457Z,18.22
2023-04-15T16:06:52.288Z,17.89
2023-04-15T16:09:22.654Z,17.65
2023-04-15T16:11:53.231Z,17.42
2023-04-15T16:14:25.049Z,17.21
2023-04-15T16:16:56.226Z,17.10
2023-04-15T16:19:26.720Z,16.95
2023-04-15T16:21:57.569Z,16.77
2023-04-15T16:24:27.932Z,16.50
2023-04-15T16:26:59.382Z,16.33
2023-04-15T16:29:29.864Z,16.16
2023-04-15T16:32:00.296Z,16.00
2023-04-15T16:34:30.651Z,15.88
2023-04-15T16:37:00.977Z,15.76
2023-04-15T16:39:31.470Z,15.58
2023-04-15T16:42:02.338Z,15.36
2023-04-15T16:44:32.776Z,15.11
2023-04-15T16:47:03.383Z,14.94
2023-04-15T16:49:34.964Z,14.79
2023-04-15T16:52:05.749Z,14.68
2023-04-15T16:54:41.223Z,14.60
2023-04-15T16:57:12.045Z,14.51
2023-04-15T16:59:42.370Z,14.41
2023-04-15T17:02:14.267Z,14.31
2023-04-15T17:04:44.669Z,14.21
2023-04-15T17:07:15.029Z,14.08
2023-04-15T17:09:45.919Z,13.99
2023-04-15T17:12:16.555Z,13.93
2023-04-15T17:14:46.932Z,13.86
2023-04-15T17:17:17.244Z,13.78
2023-04-15T17:19:47.500Z,13.69
2023-04-15T17:22:18.036Z,13.58
2023-04-15T17:24:48.341Z,13.47
2023-04-15T17:27:18.684Z,13.36
2023-04-15T17:29:49.138Z,13.25
2023-04-15T17:32:19.542Z,13.14
2023-04-15T17:34:51.550Z,13.03
2023-04-15T17:37:22.012Z,12.92
2023-04-15T17:39:52.395Z,12.83
2023-04-15T17:42:23.078Z,12.74
2023-04-15T17:44:53.419Z,12.64
2023-04-15T17:47:23.870Z,12.54
2023-04-15T17:49:54.160Z,12.44
2023-04-15T17:52:24.486Z,12.34
2023-04-15T17:54:55.889Z,12.25
2023-04-15T17:57:26.278Z,12.19
2023-04-15T17:59:56.564Z,12.15
2023-04-15T18:02:27.276Z,12.11
2023-04-15T18:04:58.036Z,12.06
2023-04-15T18:07:28.647Z,12.01
2023-04-15T18:09:58.967Z,11.95
2023-04-15T18:12:29.272Z,11.88
2023-04-15T18:14:59.721Z,11.83
2023-04-15T18:17:30.170Z,11.83
2023-04-15T18:20:00.566Z,11.82
2023-04-15T18:22:31.062Z,11.81
2023-04-15T18:25:04.310Z,11.79
2023-04-15T18:27:35.808Z,11.77
2023-04-15T18:30:07.267Z,11.73
2023-04-15T18:32:37.839Z,11.71
2023-04-15T18:35:09.975Z,11.68
2023-04-15T18:37:40.495Z,11.63
2023-04-15T18:40:12.286Z,11.61
2023-04-15T18:42:42.693Z,11.57
2023-04-15T18:45:13.272Z,11.52
2023-04-15T18:47:43.655Z,11.52
2023-04-15T18:50:14.248Z,11.49
2023-04-15T18:52:44.605Z,11.47
2023-04-15T18:55:16.535Z,11.48
2023-04-15T18:57:48.642Z,11.46
2023-04-15T19:00:19.585Z,11.45
2023-04-15T19:02:50.241Z,11.43
2023-04-15T19:05:21.069Z,11.42
2023-04-15T19:07:52.492Z,11.41
2023-04-15T19:10:23.289Z,11.40
2023-04-15T19:12:53.627Z,11.37
2023-04-15T19:15:24.066Z,11.36
2023-04-15T19:17:54.498Z,11.34
2023-04-15T19:20:24.945Z,11.31
2023-04-15T19:22:57.151Z,11.28
2023-04-15T19:25:27.679Z,11.26
2023-04-15T19:27:59.931Z,11.24
2023-04-15T19:30:32.405Z,11.24
2023-04-15T19:33:02.935Z,11.23
2023-04-15T19:35:33.845Z,11.21
2023-04-15T19:38:05.475Z,11.20
2023-04-15T19:40:35.877Z,11.20
2023-04-15T19:43:06.254Z,11.20
2023-04-15T19:45:36.818Z,11.20
2023-04-15T19:48:07.519Z,11.20
2023-04-15T19:50:38.303Z,11.19
2023-04-15T19:53:08.707Z,11.18
2023-04-15T19:55:39.332Z,11.19
2023-04-15T19:58:09.737Z,11.19
2023-04-15T20:00:42.890Z,11.19
2023-04-15T20:03:13.406Z,11.18
2023-04-15T20:05:44.009Z,11.16
2023-04-15T20:08:14.442Z,11.14
2023-04-15T20:10:44.783Z,11.14
2023-04-15T20:13:15.325Z,11.13
2023-04-15T20:15:46.438Z,11.12
2023-04-15T20:18:16.835Z,11.12
2023-04-15T20:20:48.210Z,11.11
2023-04-15T20:23:18.616Z,11.09
2023-04-15T20:25:48.960Z,11.07
2023-04-15T20:28:19.354Z,11.06
2023-04-15T20:30:49.891Z,11.05
2023-04-15T20:33:22.205Z,11.03
2023-04-15T20:35:52.538Z,11.01
2023-04-15T20:38:24.402Z,10.99
2023-04-15T20:40:54.857Z,10.98
2023-04-15T20:43:29.127Z,10.96
2023-04-15T20:46:06.981Z,10.96
2023-04-15T20:48:47.930Z,10.94
2023-04-15T20:51:18.290Z,10.92
2023-04-15T20:53:49.155Z,10.89
2023-04-15T20:56:19.539Z,10.86
2023-04-15T20:58:52.507Z,10.83
2023-04-15T21:01:23.883Z,10.80
2023-04-15T21:03:54.774Z,10.78
2023-04-15T21:06:26.775Z,10.78
2023-04-15T21:08:57.127Z,10.75
2023-04-15T21:11:46.442Z,10.72
2023-04-15T21:14:17.851Z,10.68
2023-04-15T21:16:48.330Z,10.65
2023-04-15T21:19:18.679Z,10.63
2023-04-15T21:21:48.978Z,10.61
2023-04-15T21:24:19.351Z,10.58
2023-04-15T21:26:50.080Z,10.55
2023-04-15T21:29:20.641Z,10.51
2023-04-15T21:31:51.194Z,10.46
2023-04-15T21:34:21.612Z,10.42
2023-04-15T21:36:51.880Z,10.38
2023-04-15T21:39:22.771Z,10.34
2023-04-15T21:41:53.086Z,10.30
2023-04-15T21:44:23.449Z,10.27
2023-04-15T21:46:55.242Z,10.24
2023-04-15T21:49:25.709Z,10.23
2023-04-15T21:52:00.905Z,10.20
2023-04-15T21:54:31.343Z,10.17
2023-04-15T21:57:01.767Z,10.13
2023-04-15T21:59:32.150Z,10.10
2023-04-15T22:02:02.685Z,10.06
2023-04-15T22:04:33.153Z,10.05
2023-04-15T22:07:03.605Z,10.06
2023-04-15T22:09:33.958Z,10.04
2023-04-15T22:12:06.350Z,10.04
2023-04-15T22:14:36.737Z,10.05
2023-04-15T22:17:07.086Z,10.03
2023-04-15T22:19:37.381Z,10.02
2023-04-15T22:22:07.700Z,10.02
2023-04-15T22:24:40.435Z,10.02
2023-04-15T22:27:11.028Z,10.01
2023-04-15T22:29:41.399Z,10.01
2023-04-15T22:32:11.765Z,10.01
2023-04-15T22:34:42.714Z,10.00
2023-04-15T22:37:13.640Z,9.97
2023-04-15T22:39:43.990Z,9.91
2023-04-15T22:42:14.291Z,9.84
2023-04-15T22:44:44.608Z,9.77
2023-04-15T22:47:14.933Z,9.69
2023-04-15T22:49:45.998Z,9.62
2023-04-15T22:52:29.552Z,9.55
2023-04-15T22:55:01.075Z,9.50
2023-04-15T22:57:31.473Z,9.47
2023-04-15T23:00:01.963Z,9.47
2023-04-15T23:02:33.388Z,9.46
2023-04-15T23:05:12.425Z,9.46
2023-04-15T23:07:43.636Z,9.43
2023-04-15T23:10:14.246Z,9.43
2023-04-15T23:12:45.185Z,9.42
2023-04-15T23:15:15.810Z,9.39
2023-04-15T23:17:46.159Z,9.35
2023-04-15T23:20:16.811Z,9.31
2023-04-15T23:22:47.296Z,9.25
2023-04-15T23:25:17.682Z,9.20
2023-04-15T23:27:48.454Z,9.16
2023-04-15T23:30:19.080Z,9.11
2023-04-15T23:32:49.529Z,9.07
2023-04-15T23:35:20.051Z,9.03
2023-04-15T23:37:50.373Z,8.97
2023-04-15T23:40:20.845Z,8.89
2023-04-15T23:42:51.806Z,8.77
2023-04-15T23:45:22.193Z,8.62
2023-04-15T23:47:52.656Z,8.52
2023-04-15T23:50:24.054Z,8.44
2023-04-15T23:52:54.446Z,8.38
2023-04-15T23:55:24.821Z,8.27
2023-04-15T23:57:55.215Z,8.20
